createdAt,value
2023-01-17T00:00:32.966Z,630.70
2023-01-17T00:03:57.481Z,839.88
2023-01-17T00:07:18.320Z,882.67
2023-01-17T00:10:25.100Z,802.47
2023-01-17T00:13:28.363Z,837.10
2023-01-17T00:16:31.621Z,768.08
2023-01-17T00:19:52.014Z,819.97
2023-01-17T00:29:20.483Z,898.97
2023-01-17T00:32:22.546Z,853.92
2023-01-17T00:35:27.921Z,795.90
2023-01-17T00:38:32.480Z,750.33
2023-01-17T00:41:35.916Z,729.15
2023-01-17T00:44:56.320Z,657.78
2023-01-17T00:54:58.035Z,866.45
2023-01-17T00:58:24.618Z,874.60
2023-01-17T01:01:45.308Z,796.78
2023-01-17T01:05:05.961Z,824.90
2023-01-17T01:08:35.813Z,859.70
2023-01-17T01:11:56.362Z,820.92
2023-01-17T01:15:18.374Z,743.75
2023-01-17T01:18:39.278Z,914.78
2023-01-17T01:22:00.113Z,735.53
2023-01-17T01:25:20.788Z,804.13
2023-01-17T01:28:41.273Z,867.38
2023-01-17T01:32:03.160Z,802.15
2023-01-17T01:35:06.991Z,789.15
2023-01-17T01:38:10.392Z,732.92
2023-01-17T01:41:13.691Z,792.83
2023-01-17T01:44:46.543Z,737.22
2023-01-17T01:47:52.797Z,768.92
2023-01-17T01:50:56.574Z,798.40
2023-01-17T01:54:02.868Z,779.53
2023-01-17T01:57:09.444Z,744.50
2023-01-17T02:00:17.716Z,746.55
2023-01-17T02:03:29.418Z,801.85
2023-01-17T02:06:36.369Z,821.17
2023-01-17T02:09:39.701Z,804.60
2023-01-17T02:12:43.492Z,753.53
2023-01-17T02:15:57.102Z,792.25
2023-01-17T02:19:19.603Z,800.33
2023-01-17T02:22:53.087Z,801.63
2023-01-17T02:26:34.512Z,808.85
2023-01-17T02:30:20.082Z,848.08
2023-01-17T02:33:34.375Z,827.30
2023-01-17T02:36:43.193Z,824.85
2023-01-17T02:39:54.530Z,782.55
2023-01-17T02:43:03.314Z,880.22
2023-01-17T02:46:08.892Z,843.40
2023-01-17T02:49:15.390Z,826.17
2023-01-17T02:52:31.722Z,796.00
2023-01-17T02:55:47.856Z,716.97
2023-01-17T02:59:05.625Z,799.38
2023-01-17T03:02:16.913Z,825.35
2023-01-17T03:05:25.150Z,801.97
2023-01-17T03:08:29.624Z,813.15
2023-01-17T03:11:33.179Z,813.70
2023-01-17T03:14:36.401Z,736.33
2023-01-17T03:17:41.961Z,751.78
2023-01-17T03:20:46.660Z,752.80
2023-01-17T03:23:49.943Z,760.20
2023-01-17T03:26:53.255Z,837.85
2023-01-17T03:29:56.450Z,750.35
2023-01-17T03:32:59.721Z,819.95
2023-01-17T03:36:04.835Z,820.80
2023-01-17T03:39:08.218Z,826.30
2023-01-17T03:42:11.481Z,759.67
2023-01-17T03:45:14.792Z,777.13
2023-01-17T03:48:18.437Z,771.55
2023-01-17T03:51:23.119Z,793.30
2023-01-17T03:54:26.293Z,811.35
2023-01-17T03:57:29.838Z,692.10
2023-01-17T04:00:33.167Z,700.97
2023-01-17T04:03:36.614Z,710.42
2023-01-17T04:06:41.219Z,820.42
2023-01-17T04:09:44.516Z,821.30
2023-01-17T04:12:47.975Z,740.00
2023-01-17T04:15:52.184Z,713.45
2023-01-17T04:18:55.493Z,755.47
2023-01-17T04:22:00.132Z,790.83
2023-01-17T04:25:03.349Z,771.55
2023-01-17T04:28:07.282Z,715.08
2023-01-17T04:31:14.293Z,663.88
2023-01-17T04:34:17.541Z,713.95
2023-01-17T04:37:22.132Z,785.13
2023-01-17T04:40:26.516Z,675.40
2023-01-17T04:43:29.712Z,645.45
2023-01-17T04:46:33.031Z,594.65
2023-01-17T04:49:36.202Z,842.67
2023-01-17T04:52:40.913Z,767.95
2023-01-17T04:55:46.385Z,707.85
2023-01-17T04:58:49.626Z,729.72
2023-01-17T05:01:52.996Z,626.03
2023-01-17T05:04:56.251Z,640.83
2023-01-17T05:08:01.927Z,753.55
2023-01-17T05:11:05.284Z,641.67
2023-01-17T05:14:08.519Z,625.05
2023-01-17T05:17:12.298Z,640.42
2023-01-17T05:20:15.697Z,649.92
2023-01-17T05:23:20.356Z,722.63
2023-01-17T05:26:23.907Z,611.15
2023-01-17T05:29:27.168Z,643.72
2023-01-17T05:32:30.595Z,596.55
2023-01-17T05:35:35.034Z,747.80
2023-01-17T05:38:39.761Z,579.25
2023-01-17T05:41:43.193Z,653.17
2023-01-17T05:44:46.517Z,691.60
2023-01-17T05:47:51.287Z,677.95
2023-01-17T05:50:54.581Z,698.40
2023-01-17T05:53:59.293Z,631.70
2023-01-17T05:57:02.655Z,670.78
2023-01-17T06:00:06.949Z,601.20
2023-01-17T06:03:11.337Z,672.65
2023-01-17T06:06:14.712Z,781.60
2023-01-17T06:09:19.403Z,698.28
2023-01-17T06:12:22.642Z,639.25
2023-01-17T06:15:25.885Z,616.88
2023-01-17T06:18:29.609Z,691.22
2023-01-17T06:21:33.083Z,639.03
2023-01-17T06:24:37.805Z,778.05
2023-01-17T06:27:41.161Z,645.22
2023-01-17T06:30:44.831Z,699.47
2023-01-17T06:33:48.243Z,690.85
2023-01-17T06:36:51.543Z,695.13
2023-01-17T06:39:56.312Z,676.50
2023-01-17T06:43:02.173Z,633.80
2023-01-17T06:46:05.667Z,809.67
2023-01-17T06:49:08.980Z,648.40
2023-01-17T06:52:12.388Z,686.70
2023-01-17T06:55:17.380Z,850.53
2023-01-17T06:58:20.683Z,763.80
2023-01-17T07:01:24.373Z,724.80
2023-01-17T07:04:27.766Z,798.03
2023-01-17T07:07:33.729Z,841.80
2023-01-17T07:10:38.700Z,757.92
2023-01-17T07:13:42.952Z,790.28
2023-01-17T07:16:49.149Z,766.33
2023-01-17T07:19:52.488Z,740.20
2023-01-17T07:22:55.751Z,729.00
2023-01-17T07:26:01.636Z,734.05
2023-01-17T07:29:05.927Z,776.13
2023-01-17T07:32:11.014Z,612.03
2023-01-17T07:35:16.358Z,715.47
2023-01-17T07:38:21.168Z,702.53
2023-01-17T07:41:25.992Z,741.90
2023-01-17T07:44:32.657Z,721.50
2023-01-17T07:47:36.091Z,679.50
2023-01-17T07:50:39.734Z,713.50
2023-01-17T07:54:01.775Z,758.33
2023-01-17T07:57:06.637Z,631.67
2023-01-17T08:00:11.376Z,783.08
2023-01-17T08:03:19.423Z,765.33
2023-01-17T08:06:26.106Z,745.13
2023-01-17T08:09:29.387Z,673.13
2023-01-17T08:12:35.571Z,754.90
2023-01-17T08:15:38.875Z,757.15
2023-01-17T08:18:42.525Z,638.42
2023-01-17T08:21:46.134Z,708.47
2023-01-17T08:24:49.447Z,729.85
2023-01-17T08:27:58.849Z,709.53
2023-01-17T08:31:08.040Z,521.57
2023-01-17T08:34:11.630Z,728.88
2023-01-17T08:37:15.313Z,743.70
2023-01-17T08:40:19.806Z,682.35
2023-01-17T08:43:24.894Z,735.45
2023-01-17T08:46:29.082Z,814.10
2023-01-17T08:49:33.184Z,813.65
2023-01-17T08:52:37.201Z,852.42
2023-01-17T08:55:40.995Z,744.67
2023-01-17T08:58:46.295Z,673.53
2023-01-17T09:01:52.336Z,628.63
2023-01-17T09:04:55.908Z,580.85
2023-01-17T09:07:59.270Z,552.13
2023-01-17T09:11:05.014Z,504.73
2023-01-17T09:14:12.444Z,521.60
2023-01-17T09:17:15.967Z,523.78
2023-01-17T09:20:19.827Z,477.35
2023-01-17T09:23:23.859Z,523.55
2023-01-17T09:26:29.168Z,513.47
2023-01-17T09:29:34.300Z,448.38
2023-01-17T09:32:37.842Z,482.20
2023-01-17T09:35:41.345Z,530.58
2023-01-17T09:38:45.016Z,476.92
2023-01-17T09:41:55.917Z,508.80
2023-01-17T09:45:00.884Z,499.13
2023-01-17T09:48:10.166Z,531.83
2023-01-17T09:51:19.988Z,515.75
2023-01-17T09:54:25.871Z,527.45
2023-01-17T09:57:41.913Z,499.15
2023-01-17T10:00:59.046Z,499.98
2023-01-17T10:04:20.133Z,527.28
2023-01-17T10:07:36.682Z,480.88
2023-01-17T10:10:44.030Z,501.75
2023-01-17T10:13:56.916Z,458.77
2023-01-17T10:17:11.001Z,467.80
2023-01-17T10:20:34.885Z,480.00
2023-01-17T10:24:13.979Z,471.58
2023-01-17T10:27:22.922Z,477.17
2023-01-17T10:30:33.611Z,496.75
2023-01-17T10:33:47.596Z,609.45
2023-01-17T10:36:56.188Z,524.95
2023-01-17T10:40:15.227Z,917.90
2023-01-17T10:43:25.891Z,522.03
2023-01-17T10:46:36.459Z,615.65
2023-01-17T10:49:46.442Z,1174.13
2023-01-17T10:52:59.116Z,664.08
2023-01-17T10:56:03.477Z,721.42
2023-01-17T10:59:29.596Z,1028.90
2023-01-17T11:02:39.929Z,941.50
2023-01-17T11:05:45.468Z,668.88
2023-01-17T11:08:56.135Z,740.13
2023-01-17T11:17:02.211Z,539.80
2023-01-17T11:20:20.106Z,694.25
2023-01-17T11:28:43.365Z,774.25
2023-01-17T11:31:47.362Z,814.03
2023-01-17T11:35:08.127Z,800.92
2023-01-17T11:38:21.601Z,748.08
2023-01-17T11:41:28.273Z,769.00
2023-01-17T11:44:33.616Z,734.05
2023-01-17T11:47:36.925Z,775.83
2023-01-17T11:50:42.593Z,789.15
2023-01-17T11:53:48.392Z,785.25
2023-01-17T11:56:58.513Z,825.10
2023-01-17T12:00:12.894Z,831.80
2023-01-17T12:03:30.890Z,748.42
2023-01-17T12:06:56.370Z,747.47
2023-01-17T12:10:06.734Z,739.13
2023-01-17T12:13:38.827Z,693.10
2023-01-17T12:16:57.228Z,704.70
2023-01-17T12:20:05.020Z,718.00
2023-01-17T12:23:27.737Z,738.80
2023-01-17T12:26:39.923Z,740.83
2023-01-17T12:29:51.086Z,714.38
2023-01-17T12:33:05.711Z,771.42
2023-01-17T12:36:17.640Z,816.13
2023-01-17T12:39:26.145Z,738.92
2023-01-17T12:42:33.871Z,803.53
2023-01-17T12:45:43.979Z,782.50
2023-01-17T12:48:49.585Z,794.67
2023-01-17T12:51:59.052Z,711.05
2023-01-17T12:55:08.537Z,698.57
2023-01-17T12:58:20.031Z,847.17
2023-01-17T13:01:31.135Z,949.63
2023-01-17T13:04:57.008Z,898.72
2023-01-17T13:08:11.135Z,805.10
2023-01-17T13:11:19.594Z,694.40
2023-01-17T13:14:23.445Z,690.40
2023-01-17T13:17:45.013Z,838.10
2023-01-17T13:21:11.534Z,910.92
2023-01-17T13:24:27.150Z,841.00
2023-01-17T13:27:55.961Z,798.15
2023-01-17T13:31:29.150Z,845.40
2023-01-17T13:35:04.411Z,747.03
2023-01-17T13:38:26.415Z,837.67
2023-01-17T13:41:43.993Z,798.92
2023-01-17T13:44:47.759Z,895.83
2023-01-17T13:47:51.514Z,733.08
2023-01-17T13:50:57.334Z,769.38
2023-01-17T13:54:01.105Z,880.58
2023-01-17T13:57:40.020Z,811.10
2023-01-17T14:00:55.149Z,879.88
2023-01-17T14:04:08.080Z,831.58
2023-01-17T14:07:26.039Z,843.45
2023-01-17T14:10:37.819Z,784.38
2023-01-17T14:13:41.508Z,774.88
2023-01-17T14:16:46.389Z,799.80
2023-01-17T14:19:53.010Z,800.20
2023-01-17T14:22:59.805Z,811.38
2023-01-17T14:26:21.026Z,831.22
2023-01-17T14:29:52.271Z,826.40
2023-01-17T14:33:21.268Z,874.42
2023-01-17T14:36:29.568Z,848.60
2023-01-17T14:39:46.557Z,669.42
2023-01-17T14:42:57.714Z,715.97
2023-01-17T14:46:04.242Z,613.42
2023-01-17T14:49:22.213Z,569.70
2023-01-17T14:52:26.621Z,625.85
2023-01-17T14:55:31.673Z,609.78
2023-01-17T14:58:37.546Z,575.25
2023-01-17T15:01:41.637Z,671.70
2023-01-17T15:04:45.721Z,623.53
2023-01-17T15:07:53.313Z,636.25
2023-01-17T15:11:03.078Z,708.55
2023-01-17T15:14:08.127Z,683.55
2023-01-17T15:17:12.927Z,709.08
2023-01-17T15:20:19.290Z,624.30
2023-01-17T15:23:24.205Z,715.25
2023-01-17T15:26:32.445Z,622.25
2023-01-17T15:29:36.868Z,710.42
2023-01-17T15:32:41.025Z,730.88
2023-01-17T15:35:44.646Z,693.83
2023-01-17T15:38:54.146Z,773.53
2023-01-17T15:42:01.217Z,701.13
2023-01-17T15:45:09.900Z,660.42
2023-01-17T15:48:44.983Z,680.35
2023-01-17T15:51:55.761Z,739.75
2023-01-17T15:55:24.733Z,820.55
2023-01-17T15:58:32.368Z,551.78
2023-01-17T16:01:37.067Z,675.42
2023-01-17T16:04:42.396Z,791.92
2023-01-17T16:07:46.070Z,642.53
2023-01-17T16:10:53.817Z,661.78
2023-01-17T16:13:59.908Z,690.85
2023-01-17T16:17:05.904Z,698.17
2023-01-17T16:20:16.319Z,668.08
2023-01-17T16:23:20.061Z,740.65
2023-01-17T16:26:24.360Z,635.55
2023-01-17T16:29:29.649Z,679.40
2023-01-17T16:32:33.161Z,648.65
2023-01-17T16:35:36.913Z,770.28
2023-01-17T16:38:40.564Z,618.58
2023-01-17T16:41:44.419Z,718.95
2023-01-17T16:44:49.788Z,660.83
2023-01-17T16:47:54.836Z,657.72
2023-01-17T16:50:59.436Z,577.97
2023-01-17T16:54:03.024Z,715.55
2023-01-17T16:57:06.511Z,801.22
2023-01-17T17:00:13.501Z,764.50
2023-01-17T17:03:18.284Z,773.78
2023-01-17T17:06:21.889Z,788.15
2023-01-17T17:09:25.206Z,645.90
2023-01-17T17:12:28.596Z,859.83
2023-01-17T17:15:33.406Z,813.97
2023-01-17T17:18:36.967Z,859.20
2023-01-17T17:21:40.366Z,872.72
2023-01-17T17:24:44.844Z,760.55
2023-01-17T17:27:48.395Z,759.58
2023-01-17T17:31:01.836Z,817.10
2023-01-17T17:34:07.309Z,768.17
2023-01-17T17:37:11.195Z,760.22
2023-01-17T17:40:14.731Z,760.25
2023-01-17T17:43:18.408Z,740.58
2023-01-17T17:46:27.393Z,719.55
2023-01-17T17:49:30.871Z,769.97
2023-01-17T17:52:34.687Z,750.90
2023-01-17T17:55:40.165Z,812.03
2023-01-17T17:58:46.037Z,835.97
2023-01-17T18:01:51.401Z,744.22
2023-01-17T18:04:54.750Z,687.00
2023-01-17T18:07:57.989Z,834.88
2023-01-17T18:11:02.920Z,893.03
2023-01-17T18:14:12.032Z,865.47
2023-01-17T18:17:20.263Z,875.60
2023-01-17T18:20:23.975Z,899.30
2023-01-17T18:23:27.347Z,751.90
2023-01-17T18:26:32.676Z,729.40
2023-01-17T18:29:35.988Z,648.50
2023-01-17T18:32:41.910Z,712.85
2023-01-17T18:35:54.736Z,682.03
2023-01-17T18:38:58.210Z,621.72
2023-01-17T18:42:01.702Z,659.45
2023-01-17T18:45:05.825Z,740.58
2023-01-17T18:48:11.905Z,682.33
2023-01-17T18:51:16.878Z,746.72
2023-01-17T18:54:20.916Z,632.08
2023-01-17T18:57:24.298Z,645.95
2023-01-17T19:00:27.659Z,659.38
2023-01-17T19:03:32.414Z,724.83
2023-01-17T19:06:37.187Z,621.97
2023-01-17T19:09:40.520Z,696.17
2023-01-17T19:12:46.553Z,813.78
2023-01-17T19:15:50.336Z,729.28
2023-01-17T19:18:55.628Z,651.33
2023-01-17T19:21:58.839Z,706.83
2023-01-17T19:25:02.181Z,678.50
2023-01-17T19:28:08.459Z,658.42
2023-01-17T19:31:14.553Z,681.80
2023-01-17T19:34:20.332Z,635.15
2023-01-17T19:37:24.860Z,653.28
2023-01-17T19:40:29.031Z,734.95
2023-01-17T19:43:32.463Z,705.80
2023-01-17T19:46:36.865Z,739.30
2023-01-17T19:49:42.531Z,671.67
2023-01-17T19:52:45.929Z,691.72
2023-01-17T19:55:49.272Z,732.22
2023-01-17T19:58:53.245Z,706.92
2023-01-17T20:01:56.680Z,824.47
2023-01-17T20:05:01.674Z,879.85
2023-01-17T20:08:06.293Z,759.65
2023-01-17T20:11:13.786Z,686.70
2023-01-17T20:14:19.336Z,631.20
2023-01-17T20:17:22.926Z,660.47
2023-01-17T20:20:32.550Z,652.05
2023-01-17T20:23:36.809Z,782.53
2023-01-17T20:26:40.557Z,841.10
2023-01-17T20:29:45.847Z,779.63
2023-01-17T20:32:49.559Z,765.63
2023-01-17T20:36:09.078Z,826.33
2023-01-17T20:39:15.484Z,870.63
2023-01-17T20:42:19.814Z,839.80
2023-01-17T20:45:23.343Z,880.08
2023-01-17T20:48:26.577Z,856.00
2023-01-17T20:51:34.390Z,922.40
2023-01-17T20:54:37.969Z,896.55
2023-01-17T20:57:41.916Z,755.97
2023-01-17T21:00:47.846Z,778.60
2023-01-17T21:03:54.227Z,749.50
2023-01-17T21:06:59.223Z,758.80
2023-01-17T21:10:03.762Z,807.78
2023-01-17T21:13:07.182Z,842.95
2023-01-17T21:16:14.290Z,848.00
2023-01-17T21:19:17.683Z,841.15
2023-01-17T21:22:22.855Z,884.60
2023-01-17T21:25:26.246Z,850.13
2023-01-17T21:28:32.109Z,810.50
2023-01-17T21:31:36.727Z,869.22
2023-01-17T21:34:40.122Z,773.70
2023-01-17T21:37:44.759Z,792.85
2023-01-17T21:40:48.286Z,829.90
2023-01-17T21:43:56.089Z,742.95
2023-01-17T21:46:59.897Z,777.90
2023-01-17T21:50:03.485Z,763.20
2023-01-17T21:53:10.088Z,761.75
2023-01-17T21:56:32.666Z,650.13
2023-01-17T21:59:38.803Z,737.53
2023-01-17T22:02:42.392Z,803.90
2023-01-17T22:05:45.770Z,730.15
2023-01-17T22:08:51.481Z,669.95
2023-01-17T22:11:55.074Z,651.78
2023-01-17T22:14:58.430Z,644.10
2023-01-17T22:18:01.748Z,616.45
2023-01-17T22:21:07.150Z,716.97
2023-01-17T22:24:13.007Z,834.13
2023-01-17T22:27:16.397Z,685.50
2023-01-17T22:30:20.261Z,635.63
2023-01-17T22:33:23.450Z,728.58
2023-01-17T22:36:27.701Z,706.63
2023-01-17T22:39:32.367Z,672.75
2023-01-17T22:42:38.273Z,689.10
2023-01-17T22:45:41.951Z,742.22
2023-01-17T22:48:45.819Z,702.17
2023-01-17T22:51:49.103Z,786.15
2023-01-17T22:54:53.761Z,763.03
2023-01-17T22:57:57.088Z,754.85
2023-01-17T23:01:06.444Z,703.63
2023-01-17T23:04:14.229Z,748.80
2023-01-17T23:07:17.515Z,741.00
2023-01-17T23:10:36.025Z,669.60
2023-01-17T23:13:39.255Z,714.72
2023-01-17T23:17:02.826Z,644.22
2023-01-17T23:20:07.791Z,792.85
2023-01-17T23:23:12.422Z,729.40
2023-01-17T23:26:17.253Z,708.83
2023-01-17T23:29:19.483Z,793.65
2023-01-17T23:32:22.777Z,685.22
2023-01-17T23:35:28.934Z,624.47
2023-01-17T23:38:33.905Z,638.47
2023-01-17T23:41:55.971Z,677.78
2023-01-17T23:44:59.198Z,648.90
2023-01-17T23:48:02.611Z,596.65
2023-01-17T23:51:08.072Z,680.10
2023-01-17T23:54:11.513Z,620.50
2023-01-17T23:57:16.127Z,623.13
